Time;durP1;ratioP1;P1;durP2;ratioP2;P2;SDS_P1;SDS_P2;PMS_P1;PMS_P2;Temp;Humidity;BMP_temperature;BMP_pressure;BME280_temperature;BME280_humidity;BME280_pressure;Samples;Min_cycle;Max_cycle;Signal;HPM_P1;HPM_P2
2022/12/14 00:01:59;;;;;;;10.67;9.47;;;;;;;-2.80;94.05;97295.28;4200836;28;20669;-51
2022/12/14 00:04:05;;;;;;;8.77;7.50;;;;;;;-2.81;94.03;97283.75;4216317;28;20233;-50
2022/12/14 00:06:29;;;;;;;8.93;8.03;;;;;;;-2.86;94.51;97283.50;4204644;28;20574;-49
2022/12/14 00:08:34;;;;;;;8.67;7.87;;;;;;;-2.85;94.33;97277.16;4199116;28;20290;-50
2022/12/14 00:10:44;;;;;;;10.97;8.97;;;;;;;-2.87;93.88;97281.03;4217451;28;20207;-50
2022/12/14 00:12:49;;;;;;;10.77;7.63;;;;;;;-2.77;93.53;97271.63;4216441;28;20207;-48
2022/12/14 00:14:54;;;;;;;8.50;7.77;;;;;;;-2.73;93.50;97274.75;4216624;28;20315;-49
2022/12/14 00:16:57;;;;;;;8.50;7.80;;;;;;;-2.68;93.56;97272.31;4216601;28;20287;-49
2022/12/14 00:19:06;;;;;;;10.10;8.37;;;;;;;-2.66;93.37;97264.91;4214694;28;20292;-57
2022/12/14 00:21:13;;;;;;;7.67;6.97;;;;;;;-2.69;93.07;97265.28;4198835;28;20198;-48
2022/12/14 00:23:16;;;;;;;8.03;7.43;;;;;;;-2.75;93.06;97266.91;4201690;28;20624;-48
2022/12/14 00:25:22;;;;;;;10.10;8.53;;;;;;;-2.74;92.92;97265.06;4217054;28;20198;-49
2022/12/14 00:27:27;;;;;;;8.27;6.97;;;;;;;-2.75;92.91;97258.88;4219654;27;20228;-48
2022/12/14 00:29:31;;;;;;;10.23;6.87;;;;;;;-2.73;91.38;97254.13;4201418;28;20222;-51
2022/12/14 00:31:36;;;;;;;8.13;7.53;;;;;;;-2.65;91.77;97245.13;4202170;28;20269;-51
2022/12/14 00:33:41;;;;;;;7.07;6.30;;;;;;;-2.67;91.58;97233.81;4218604;28;20206;-48
2022/12/14 00:35:46;;;;;;;8.77;8.07;;;;;;;-2.76;92.12;97224.28;4219400;28;20205;-50
2022/12/14 00:37:50;;;;;;;8.63;7.93;;;;;;;-2.78;92.16;97234.34;4206673;28;20233;-50
2022/12/14 00:39:54;;;;;;;7.57;6.87;;;;;;;-2.71;93.72;97227.19;4188574;28;21331;-52
2022/12/14 00:41:58;;;;;;;8.63;7.70;;;;;;;-2.66;90.88;97230.91;4203191;28;20582;-50
2022/12/14 00:44:02;;;;;;;7.67;7.07;;;;;;;-2.65;91.17;97226.38;4204326;28;20322;-50
2022/12/14 00:46:06;;;;;;;8.17;7.50;;;;;;;-2.58;91.24;97232.59;4203217;28;20245;-52
2022/12/14 00:48:11;;;;;;;7.00;6.30;;;;;;;-2.60;91.22;97229.31;4222283;27;20677;-49
2022/12/14 00:50:16;;;;;;;8.30;6.37;;;;;;;-2.58;91.20;97224.56;4208640;28;20202;-49
2022/12/14 00:52:20;;;;;;;11.00;8.17;;;;;;;-2.52;91.51;97216.56;4203025;28;20209;-49
2022/12/14 00:54:25;;;;;;;7.73;7.13;;;;;;;-2.48;92.10;97227.72;4218898;27;20237;-49
2022/12/14 00:56:30;;;;;;;7.47;6.90;;;;;;;-2.56;92.15;97219.81;4221191;27;20255;-48
2022/12/14 00:58:34;;;;;;;7.37;6.73;;;;;;;-2.60;91.08;97224.75;4204048;28;20280;-50
2022/12/14 01:00:39;;;;;;;7.43;6.73;;;;;;;-2.55;91.70;97229.53;4205756;28;20211;-50
2022/12/14 01:02:43;;;;;;;8.57;7.60;;;;;;;-2.55;91.38;97226.88;4200581;28;20203;-51
2022/12/14 01:04:49;;;;;;;8.73;7.93;;;;;;;-2.46;91.42;97234.53;4204944;28;20199;-49
2022/12/14 01:06:53;;;;;;;7.13;6.53;;;;;;;-2.48;91.18;97239.22;4183998;28;20436;-52
2022/12/14 01:08:57;;;;;;;9.43;7.20;;;;;;;-2.46;91.50;97233.69;4217579;27;20202;-48
2022/12/14 01:11:10;;;;;;;9.60;7.93;;;;;;;-2.41;91.77;97236.59;4217009;27;20206;-49
2022/12/14 01:13:15;;;;;;;9.00;7.00;;;;;;;-2.41;91.84;97236.59;4218565;27;20725;-50
2022/12/14 01:15:21;;;;;;;7.20;6.53;;;;;;;-2.35;90.60;97233.13;4219376;27;20230;-50
2022/12/14 01:17:25;;;;;;;7.67;6.97;;;;;;;-2.57;90.16;97219.03;4202277;28;20321;-52
2022/12/14 01:19:30;;;;;;;8.10;7.40;;;;;;;-2.45;90.54;97211.22;4217384;27;20706;-48
2022/12/14 01:21:36;;;;;;;7.83;6.17;;;;;;;-2.52;90.96;97219.25;4199640;28;20652;-51
2022/12/14 01:23:41;;;;;;;7.60;6.97;;;;;;;-2.38;90.67;97222.78;4216568;28;20218;-49
2022/12/14 01:25:48;;;;;;;6.87;6.27;;;;;;;-2.42;90.20;97222.38;4219021;28;20205;-47
2022/12/14 01:27:53;;;;;;;6.40;5.90;;;;;;;-2.45;90.69;97216.59;4220035;27;20234;-50
2022/12/14 01:29:57;;;;;;;7.30;6.57;;;;;;;-2.51;90.43;97217.38;4219131;27;20198;-50
2022/12/14 01:32:02;;;;;;;7.73;7.13;;;;;;;-2.46;91.00;97217.63;4204116;28;20818;-49
2022/12/14 01:34:07;;;;;;;5.90;5.40;;;;;;;-2.42;91.12;97206.28;4187486;28;20297;-51
2022/12/14 01:36:15;;;;;;;7.90;7.27;;;;;;;-2.36;91.03;97213.53;4218312;27;20210;-49
2022/12/14 01:38:22;;;;;;;6.93;6.23;;;;;;;-2.38;90.49;97206.72;4200606;28;20246;-51
2022/12/14 01:40:27;;;;;;;8.40;7.70;;;;;;;-2.43;91.39;97209.16;4216066;28;20202;-48
2022/12/14 01:42:30;;;;;;;6.87;6.23;;;;;;;-2.49;91.09;97220.69;4218889;27;20206;-49
2022/12/14 01:44:35;;;;;;;7.27;6.67;;;;;;;-2.39;90.46;97205.91;4186298;28;20208;-49
2022/12/14 01:46:45;;;;;;;7.83;7.23;;;;;;;-2.42;90.42;97208.16;4216531;28;20271;-48
2022/12/14 01:48:52;;;;;;;9.13;6.63;;;;;;;-2.47;90.88;97202.59;4222314;27;20193;-48
2022/12/14 01:50:56;;;;;;;8.30;7.60;;;;;;;-2.45;90.98;97205.88;4200879;28;20694;-49
2022/12/14 01:53:11;;;;;;;7.00;6.40;;;;;;;-2.46;90.97;97205.06;4217287;28;20214;-51
2022/12/14 01:55:17;;;;;;;7.00;6.30;;;;;;;-2.38;90.90;97212.06;4218360;28;20249;-50
2022/12/14 01:57:26;;;;;;;7.73;7.13;;;;;;;-2.32;90.43;97200.56;4203525;28;20238;-49
2022/12/14 01:59:35;;;;;;;8.27;7.43;;;;;;;-2.35;90.32;97198.31;4200175;28;20223;-50
2022/12/14 02:01:39;;;;;;;7.20;6.50;;;;;;;-2.22;90.50;97195.66;4215507;28;20623;-51
2022/12/14 02:03:47;;;;;;;7.50;6.90;;;;;;;-2.36;90.36;97191.28;4199089;28;20221;-51
2022/12/14 02:06:11;;;;;;;7.67;5.17;;;;;;;-2.21;90.04;97197.31;4219579;27;20274;-50
2022/12/14 02:08:16;;;;;;;6.60;6.10;;;;;;;-2.30;89.33;97198.50;4217128;28;20222;-51
2022/12/14 02:10:23;;;;;;;6.60;6.00;;;;;;;-2.29;90.04;97210.84;4219468;28;20199;-50
2022/12/14 02:12:30;;;;;;;6.93;6.40;;;;;;;-2.29;91.17;97205.50;4189115;28;20196;-50
2022/12/14 02:14:36;;;;;;;5.80;5.30;;;;;;;-2.24;89.70;97203.88;4213949;28;20209;-49
2022/12/14 02:16:45;;;;;;;6.60;5.50;;;;;;;-2.19;88.49;97211.31;4218874;28;20229;-48
2022/12/14 02:18:49;;;;;;;9.20;6.83;;;;;;;-2.22;87.89;97207.19;4216924;27;20243;-50
2022/12/14 02:21:21;;;;;;;7.20;6.53;;;;;;;-2.28;88.03;97205.31;4218162;27;20202;-50
2022/12/14 02:23:57;;;;;;;7.53;4.97;;;;;;;-2.28;88.45;97196.47;4218756;28;20217;-48
2022/12/14 02:26:07;;;;;;;6.77;6.30;;;;;;;-2.25;88.43;97196.03;4217792;28;20239;-49
2022/12/14 02:28:26;;;;;;;5.37;4.97;;;;;;;-2.20;89.16;97190.91;4216918;27;20218;-50
2022/12/14 02:30:38;;;;;;;7.90;7.20;;;;;;;-2.24;88.96;97185.13;4201731;28;20217;-49
2022/12/14 02:33:00;;;;;;;6.80;6.27;;;;;;;-2.23;88.17;97183.25;4199526;28;20238;-48
2022/12/14 02:35:13;;;;;;;5.93;5.43;;;;;;;-2.23;88.49;97178.75;4218682;28;20298;-49
2022/12/14 02:37:53;;;;;;;6.90;6.30;;;;;;;-2.24;89.37;97176.25;4219457;28;20801;-49
2022/12/14 02:40:17;;;;;;;9.43;8.53;;;;;;;-2.26;88.87;97167.63;4218151;28;20256;-50
2022/12/14 02:42:33;;;;;;;6.43;5.83;;;;;;;-2.21;88.53;97170.53;4191286;28;20260;-50
2022/12/14 02:45:10;;;;;;;6.17;5.67;;;;;;;-2.19;88.72;97171.13;4221728;27;20632;-50
2022/12/14 02:47:37;;;;;;;7.60;6.13;;;;;;;-2.16;89.35;97162.66;4200797;28;20337;-49
2022/12/14 02:49:52;;;;;;;7.30;6.80;;;;;;;-2.14;88.57;97153.41;4199687;28;20278;-49
2022/12/14 02:52:01;;;;;;;6.00;5.50;;;;;;;-2.06;88.34;97160.44;4202605;28;20243;-52
2022/12/14 02:54:24;;;;;;;6.37;5.87;;;;;;;-2.23;88.18;97148.44;4204996;28;20296;-50
2022/12/14 02:56:41;;;;;;;10.17;6.53;;;;;;;-2.24;88.89;97149.47;4218263;28;20191;-52
2022/12/14 02:58:49;;;;;;;6.47;5.97;;;;;;;-2.23;88.90;97143.09;4203301;28;20230;-51
2022/12/14 03:00:55;;;;;;;6.93;6.23;;;;;;;-2.25;89.25;97147.84;4204961;28;20293;-48
2022/12/14 03:03:00;;;;;;;5.97;5.47;;;;;;;-2.24;89.02;97133.41;4186726;28;20207;-49
2022/12/14 03:05:05;;;;;;;6.37;5.97;;;;;;;-2.24;89.59;97138.78;4206072;28;20320;-50
2022/12/14 03:07:52;;;;;;;6.33;5.83;;;;;;;-2.24;90.19;97128.06;4203401;28;20224;-52
2022/12/14 03:09:59;;;;;;;5.73;5.13;;;;;;;-2.18;89.48;97132.59;4169360;28;20207;-48
2022/12/14 03:12:07;;;;;;;6.10;5.63;;;;;;;-2.25;89.76;97132.59;4204633;28;20685;-49
2022/12/14 03:14:29;;;;;;;9.23;5.77;;;;;;;-2.29;89.95;97130.50;4218067;28;20263;-48
2022/12/14 03:16:42;;;;;;;7.20;6.60;;;;;;;-2.21;90.54;97125.00;4216450;28;20729;-48
2022/12/14 03:19:08;;;;;;;7.80;7.20;;;;;;;-2.24;90.24;97122.69;4199729;28;20641;-49
2022/12/14 03:21:15;;;;;;;8.40;6.90;;;;;;;-2.22;90.69;97124.16;4216339;28;20202;-50
2022/12/14 03:23:23;;;;;;;7.60;7.00;;;;;;;-2.22;90.83;97120.66;4216283;28;20208;-50
2022/12/14 03:25:48;;;;;;;7.20;6.50;;;;;;;-2.17;91.70;97132.41;4199048;28;20333;-51
2022/12/14 03:28:01;;;;;;;7.93;6.53;;;;;;;-2.19;92.13;97141.66;4215650;28;20241;-49
2022/12/14 03:30:10;;;;;;;8.50;7.77;;;;;;;-2.24;92.20;97134.25;4200734;28;20693;-49
2022/12/14 03:32:19;;;;;;;6.20;5.70;;;;;;;-2.12;91.92;97137.13;4216613;28;20806;-50
2022/12/14 03:34:48;;;;;;;7.60;6.90;;;;;;;-2.19;92.04;97139.00;4218252;28;20251;-49
2022/12/14 03:37:04;;;;;;;7.10;6.40;;;;;;;-2.18;92.27;97127.25;4200927;28;20226;-50
2022/12/14 03:39:10;;;;;;;7.20;6.57;;;;;;;-2.16;92.95;97135.88;4218473;28;20599;-49
2022/12/14 03:41:22;;;;;;;7.03;6.40;;;;;;;-2.14;93.14;97125.81;4217678;28;20198;-49
2022/12/14 03:44:06;;;;;;;7.00;6.30;;;;;;;-2.10;93.32;97125.19;4217389;28;20758;-50
2022/12/14 03:46:40;;;;;;;7.70;6.73;;;;;;;-2.12;93.56;97116.56;4107765;28;20198;-49
2022/12/14 03:48:55;;;;;;;7.50;6.70;;;;;;;-2.06;93.75;97120.25;4200055;28;20256;-50
2022/12/14 03:51:25;;;;;;;7.50;6.90;;;;;;;-2.00;93.42;97114.06;4189810;28;20203;-49
2022/12/14 03:53:46;;;;;;;7.03;6.40;;;;;;;-2.16;92.59;97114.47;4202547;28;20199;-49
2022/12/14 03:55:56;;;;;;;7.20;6.53;;;;;;;-2.11;92.45;97112.00;4200235;28;20240;-49
2022/12/14 03:58:32;;;;;;;7.27;6.43;;;;;;;-2.16;91.81;97111.78;4218796;28;20827;-49
2022/12/14 04:00:44;;;;;;;6.83;6.23;;;;;;;-2.10;91.96;97108.28;4217023;28;20257;-48
2022/12/14 04:03:17;;;;;;;9.07;6.83;;;;;;;-2.03;93.07;97109.09;4206174;28;20203;-49
2022/12/14 04:05:38;;;;;;;6.53;5.80;;;;;;;-2.13;91.75;97101.47;4201348;28;20202;-48
2022/12/14 04:08:13;;;;;;;8.33;7.53;;;;;;;-2.17;92.56;97096.75;4218779;28;20226;-49
2022/12/14 04:20:15;;;;;;;6.87;6.23;;;;;;;-2.16;93.07;97090.34;4217616;27;20237;-50
2022/12/14 04:22:22;;;;;;;7.17;5.83;;;;;;;-2.07;93.66;97087.25;4207928;28;20210;-49
2022/12/14 04:27:18;;;;;;;6.83;6.23;;;;;;;-2.02;94.16;97095.50;4221604;28;20663;-52
2022/12/14 04:31:57;;;;;;;7.53;6.97;;;;;;;-2.11;93.09;97094.09;4217840;28;20255;-49
2022/12/14 04:34:03;;;;;;;7.13;6.43;;;;;;;-2.08;93.52;97090.97;4218234;28;20203;-49
2022/12/14 04:36:09;;;;;;;8.27;7.47;;;;;;;-2.04;94.18;97086.88;4202880;28;20290;-50
2022/12/14 04:38:17;;;;;;;6.67;6.07;;;;;;;-2.09;94.06;97083.13;4219348;28;20222;-49
2022/12/14 04:40:45;;;;;;;8.43;7.50;;;;;;;-2.04;93.52;97069.97;4205263;28;20232;-49
2022/12/14 04:42:58;;;;;;;6.47;5.87;;;;;;;-2.09;94.38;97072.44;4201665;28;20605;-50
2022/12/14 04:45:09;;;;;;;7.63;6.97;;;;;;;-2.17;95.07;97060.09;4200418;28;20203;-49
2022/12/14 04:47:16;;;;;;;7.27;6.63;;;;;;;-2.17;95.75;97051.22;4208150;28;20263;-50
2022/12/14 04:49:25;;;;;;;7.30;6.40;;;;;;;-2.08;95.84;97053.47;4204630;28;20282;-50
2022/12/14 04:51:33;;;;;;;6.80;6.20;;;;;;;-2.04;95.81;97067.28;4204987;28;20242;-50
2022/12/14 04:53:39;;;;;;;8.57;7.77;;;;;;;-2.05;95.00;97084.38;4221624;27;20201;-51
2022/12/14 04:56:04;;;;;;;8.07;6.17;;;;;;;-2.22;95.27;97075.94;4204894;28;20570;-49
2022/12/14 04:58:22;;;;;;;7.47;6.87;;;;;;;-2.11;94.94;97069.13;4202150;28;20215;-50
2022/12/14 05:00:29;;;;;;;7.57;6.80;;;;;;;-2.10;95.25;97065.44;4221988;28;20234;-50
2022/12/14 05:02:49;;;;;;;8.70;7.90;;;;;;;-2.19;96.29;97066.69;4217241;27;20199;-50
2022/12/14 05:05:06;;;;;;;7.67;7.00;;;;;;;-2.03;95.93;97071.59;4203151;28;20205;-49
2022/12/14 05:07:19;;;;;;;8.83;7.93;;;;;;;-2.19;96.29;97072.03;4223744;27;20642;-48
2022/12/14 05:09:45;;;;;;;7.63;6.93;;;;;;;-2.11;96.57;97074.50;4204928;28;20242;-50
2022/12/14 05:11:55;;;;;;;9.20;8.37;;;;;;;-2.04;96.79;97068.13;4220935;27;20212;-51
2022/12/14 05:14:00;;;;;;;7.90;7.20;;;;;;;-2.03;97.13;97074.28;4222702;28;20677;-51
2022/12/14 05:16:06;;;;;;;9.20;8.30;;;;;;;-2.05;97.34;97095.09;4210158;28;20323;-50
2022/12/14 05:18:10;;;;;;;11.27;10.23;;;;;;;-2.13;97.23;97093.44;4191302;28;20279;-49
2022/12/14 05:20:22;;;;;;;8.70;6.37;;;;;;;-2.11;97.72;97082.53;4218676;27;20667;-49
2022/12/14 05:22:26;;;;;;;9.30;8.40;;;;;;;-2.10;97.94;97066.25;4202082;28;20206;-49
2022/12/14 05:24:30;;;;;;;8.53;7.63;;;;;;;-2.15;98.11;97070.59;4205058;27;20254;-50
2022/12/14 05:26:35;;;;;;;8.40;7.73;;;;;;;-2.27;98.46;97067.69;4218242;27;20263;-49
2022/12/14 05:28:40;;;;;;;7.60;7.00;;;;;;;-2.27;98.79;97058.84;4220373;27;20214;-49
2022/12/14 05:30:51;;;;;;;9.57;8.67;;;;;;;-2.27;99.17;97058.84;4208280;28;20230;-51
2022/12/14 05:32:55;;;;;;;9.93;9.03;;;;;;;-2.21;99.59;97055.34;4220611;28;20217;-47
2022/12/14 05:34:57;;;;;;;8.23;7.23;;;;;;;-2.24;99.18;97048.56;4221825;27;20258;-50
2022/12/14 05:37:02;;;;;;;9.73;8.83;;;;;;;-2.23;99.21;97052.03;4217787;27;20783;-50
2022/12/14 05:39:07;;;;;;;9.87;8.97;;;;;;;-2.17;99.20;97052.06;4217483;27;20197;-49
2022/12/14 05:41:12;;;;;;;9.53;8.73;;;;;;;-2.06;99.06;97039.88;4203491;28;20205;-49
2022/12/14 05:43:16;;;;;;;9.77;8.03;;;;;;;-2.08;99.15;97045.44;4200291;28;20210;-48
2022/12/14 05:45:19;;;;;;;9.20;8.30;;;;;;;-2.16;99.03;97050.19;4217085;28;20202;-49
2022/12/14 05:47:21;;;;;;;9.87;8.17;;;;;;;-2.08;98.94;97033.91;4183942;28;20258;-48
2022/12/14 05:49:24;;;;;;;7.50;6.80;;;;;;;-2.01;98.20;97026.69;4195594;28;20689;-49
2022/12/14 05:51:26;;;;;;;10.10;9.10;;;;;;;-2.13;98.52;97012.28;4214754;28;20206;-49
2022/12/14 05:53:27;;;;;;;9.23;8.43;;;;;;;-2.05;98.16;97020.09;4180387;28;20208;-49
2022/12/14 05:55:30;;;;;;;9.40;8.50;;;;;;;-2.06;98.37;97005.06;4186566;28;20890;-49
2022/12/14 05:57:32;;;;;;;8.70;7.90;;;;;;;-2.08;98.02;97001.78;4197401;28;20680;-49
2022/12/14 05:59:34;;;;;;;7.30;6.70;;;;;;;-2.16;98.34;96997.44;4215562;27;20293;-48
2022/12/14 06:01:36;;;;;;;7.87;7.17;;;;;;;-2.10;98.53;96993.09;4202181;28;20670;-49
2022/12/14 06:03:39;;;;;;;8.77;7.93;;;;;;;-2.04;98.38;96990.44;4194458;28;20261;-49
2022/12/14 06:05:41;;;;;;;8.90;8.10;;;;;;;-2.03;98.75;96977.84;4209971;28;20222;-49
2022/12/14 06:07:42;;;;;;;10.17;8.10;;;;;;;-2.06;99.08;96972.91;4193717;28;20272;-49
2022/12/14 06:09:44;;;;;;;8.83;7.93;;;;;;;-2.01;98.71;96970.44;4211323;27;20217;-49
2022/12/14 06:11:46;;;;;;;8.87;8.07;;;;;;;-2.01;98.54;96957.03;4197803;28;20253;-49
2022/12/14 06:13:48;;;;;;;8.60;7.13;;;;;;;-2.02;98.53;96955.41;4199145;28;20276;-47
2022/12/14 06:15:53;;;;;;;10.37;9.37;;;;;;;-1.97;98.88;96950.22;4200349;28;20706;-48
2022/12/14 06:17:55;;;;;;;7.90;7.30;;;;;;;-2.11;98.74;96946.75;4198308;28;20801;-48
2022/12/14 06:19:56;;;;;;;10.10;9.20;;;;;;;-2.03;99.20;96943.00;4210805;28;20222;-48
2022/12/14 06:22:00;;;;;;;8.53;7.83;;;;;;;-2.11;99.53;96935.22;4212934;28;20962;-48
2022/12/14 06:24:02;;;;;;;12.77;9.63;;;;;;;-2.17;100.00;96936.03;4196942;28;20265;-50
2022/12/14 06:26:04;;;;;;;13.80;9.73;;;;;;;-2.22;100.00;96927.84;4197405;28;20289;-48
2022/12/14 06:28:22;;;;;;;9.83;8.70;;;;;;;-2.20;100.00;96941.84;4185107;28;20223;-48
2022/12/14 06:30:41;;;;;;;8.67;7.97;;;;;;;-2.15;100.00;96944.72;4218560;28;20746;-49
2022/12/14 06:33:05;;;;;;;9.43;8.63;;;;;;;-2.03;100.00;96943.84;4217581;28;20230;-50
2022/12/14 06:35:15;;;;;;;9.13;8.17;;;;;;;-2.17;100.00;96957.47;4216548;28;20276;-49
2022/12/14 06:37:39;;;;;;;9.43;8.73;;;;;;;-2.12;100.00;96968.38;4217182;27;20272;-49
2022/12/14 06:40:15;;;;;;;8.63;7.97;;;;;;;-2.04;100.00;96984.22;4219158;27;20305;-49
2022/12/14 06:42:35;;;;;;;9.73;8.73;;;;;;;-2.04;100.00;96973.53;4204123;28;20269;-51
2022/12/14 06:45:02;;;;;;;9.37;8.37;;;;;;;-2.05;100.00;96961.16;4201774;28;20203;-51
2022/12/14 06:47:10;;;;;;;9.37;8.57;;;;;;;-2.06;100.00;96956.84;4212492;28;20221;-49
2022/12/14 06:49:16;;;;;;;9.47;8.63;;;;;;;-1.95;100.00;96956.19;4199061;28;20263;-49
2022/12/14 06:51:23;;;;;;;9.13;8.23;;;;;;;-1.84;99.71;96952.84;4216801;27;20208;-51
2022/12/14 06:53:27;;;;;;;9.80;8.87;;;;;;;-2.11;100.00;96959.31;4187594;28;20298;-49
2022/12/14 06:55:32;;;;;;;9.43;8.33;;;;;;;-2.01;100.00;96963.22;4215850;28;20642;-49
2022/12/14 06:57:37;;;;;;;9.70;8.83;;;;;;;-2.08;100.00;96957.03;4214903;28;20244;-50
2022/12/14 06:59:43;;;;;;;9.37;8.57;;;;;;;-2.07;100.00;96952.53;4202816;28;20203;-49
2022/12/14 07:01:48;;;;;;;9.53;8.63;;;;;;;-2.20;100.00;96941.84;4198108;28;20287;-50
2022/12/14 07:03:59;;;;;;;10.63;9.73;;;;;;;-2.29;100.00;96949.25;4218559;27;20212;-48
2022/12/14 07:06:04;;;;;;;9.33;8.57;;;;;;;-2.25;100.00;96949.66;4213596;28;20665;-52
2022/12/14 07:08:08;;;;;;;11.20;10.00;;;;;;;-2.21;100.00;96940.19;4214765;28;20225;-49
2022/12/14 07:10:14;;;;;;;9.13;7.57;;;;;;;-2.21;100.00;96934.84;4200638;28;20198;-49
2022/12/14 07:12:19;;;;;;;10.60;9.63;;;;;;;-2.29;100.00;96935.03;4198139;28;20214;-50
2022/12/14 07:14:24;;;;;;;11.57;10.47;;;;;;;-2.28;100.00;96936.72;4200688;28;20290;-50
2022/12/14 07:16:29;;;;;;;8.73;7.93;;;;;;;-2.19;100.00;96943.47;4218782;28;20198;-48
2022/12/14 07:18:34;;;;;;;9.83;9.00;;;;;;;-2.05;100.00;96945.09;4190768;28;20582;-47
2022/12/14 07:20:39;;;;;;;10.20;9.30;;;;;;;-2.00;100.00;96958.69;4187727;28;21763;-47
2022/12/14 07:22:44;;;;;;;10.40;9.53;;;;;;;-1.98;100.00;96957.44;4192208;28;20218;-48
2022/12/14 07:24:52;;;;;;;9.73;8.93;;;;;;;-2.03;100.00;96948.38;4217675;28;20194;-47
2022/12/14 07:26:59;;;;;;;9.57;8.70;;;;;;;-2.25;100.00;96952.34;4197237;28;20697;-47
2022/12/14 07:29:05;;;;;;;12.03;10.97;;;;;;;-2.35;100.00;96960.00;4218473;28;20202;-47
2022/12/14 07:31:18;;;;;;;11.80;10.73;;;;;;;-2.39;100.00;96959.59;4217619;28;20191;-49
2022/12/14 07:33:24;;;;;;;12.40;11.07;;;;;;;-2.38;100.00;96944.31;4209223;28;20650;-48
2022/12/14 07:35:31;;;;;;;12.97;11.67;;;;;;;-2.32;100.00;96948.84;4219018;28;20205;-47
2022/12/14 07:37:36;;;;;;;13.07;11.70;;;;;;;-2.28;100.00;96950.09;4201291;28;20242;-47
2022/12/14 07:39:41;;;;;;;11.57;10.60;;;;;;;-2.21;100.00;96950.91;4221743;27;20673;-48
2022/12/14 07:41:49;;;;;;;14.97;11.20;;;;;;;-2.34;100.00;96945.56;4222898;28;20693;-47
2022/12/14 07:43:55;;;;;;;12.67;11.43;;;;;;;-2.52;100.00;96942.69;4200850;28;20232;-48
2022/12/14 07:46:10;;;;;;;11.80;10.60;;;;;;;-2.51;100.00;96949.69;4219568;28;20209;-48
2022/12/14 07:48:14;;;;;;;10.53;9.73;;;;;;;-2.64;100.00;96939.00;4204715;28;20227;-47
2022/12/14 07:50:20;;;;;;;11.07;10.07;;;;;;;-2.50;100.00;96951.34;4205158;28;20228;-49
2022/12/14 07:52:26;;;;;;;12.93;11.20;;;;;;;-2.31;100.00;96961.22;4206679;28;20547;-47
2022/12/14 07:54:38;;;;;;;11.43;10.33;;;;;;;-2.36;100.00;96959.16;4190440;27;20217;-47
2022/12/14 07:56:44;;;;;;;11.37;10.47;;;;;;;-2.36;100.00;96948.44;4207439;28;20680;-47
2022/12/14 07:58:54;;;;;;;13.07;12.07;;;;;;;-2.43;100.00;96957.50;4217101;28;20220;-48
2022/12/14 08:01:14;;;;;;;12.47;11.30;;;;;;;-2.43;100.00;96957.50;4204019;28;20279;-48
2022/12/14 08:03:19;;;;;;;10.90;9.90;;;;;;;-2.41;100.00;96948.25;4204478;28;20234;-48
2022/12/14 08:05:26;;;;;;;11.03;10.13;;;;;;;-2.45;100.00;96949.72;4207023;28;20199;-47
2022/12/14 08:07:31;;;;;;;12.27;11.27;;;;;;;-2.61;100.00;96943.94;4216855;28;20226;-48
2022/12/14 08:09:37;;;;;;;13.67;12.53;;;;;;;-2.61;100.00;96943.94;4218925;28;20234;-48
2022/12/14 08:11:45;;;;;;;14.03;12.87;;;;;;;-2.68;100.00;96957.31;4204941;28;20297;-48
2022/12/14 08:13:57;;;;;;;14.07;11.20;;;;;;;-2.56;100.00;96952.16;4202049;28;20279;-48
2022/12/14 08:16:08;;;;;;;13.17;11.87;;;;;;;-2.39;100.00;96969.47;4203441;28;20777;-48
2022/12/14 08:18:13;;;;;;;12.80;11.60;;;;;;;-2.33;100.00;96968.63;4193004;28;20722;-47
2022/12/14 08:20:19;;;;;;;12.57;11.47;;;;;;;-2.23;100.00;96952.94;4187585;28;20257;-48
2022/12/14 08:22:24;;;;;;;17.30;12.60;;;;;;;-2.47;100.00;96953.63;4220204;27;20194;-48
2022/12/14 08:24:28;;;;;;;19.10;13.17;;;;;;;-2.45;100.00;96948.88;4200727;28;20213;-48
2022/12/14 08:26:33;;;;;;;13.07;11.97;;;;;;;-2.49;100.00;96939.59;4208505;28;20202;-48
2022/12/14 08:28:41;;;;;;;12.97;11.83;;;;;;;-2.44;100.00;96946.00;4201569;28;20242;-48
2022/12/14 08:30:45;;;;;;;12.63;11.47;;;;;;;-2.51;100.00;96957.72;4216175;28;20308;-48
2022/12/14 08:32:46;;;;;;;16.07;12.73;;;;;;;-2.40;100.00;96957.13;4199542;28;20206;-48
2022/12/14 08:34:49;;;;;;;13.83;12.53;;;;;;;-2.39;100.00;96953.41;4199872;28;20772;-48
2022/12/14 08:36:51;;;;;;;14.47;13.07;;;;;;;-2.35;100.00;96944.72;4188786;28;20620;-48
2022/12/14 08:38:54;;;;;;;15.17;13.63;;;;;;;-2.54;100.00;96942.91;4187139;28;20249;-48
2022/12/14 08:41:01;;;;;;;14.57;13.03;;;;;;;-2.61;100.00;96936.72;4213640;28;20320;-48
2022/12/14 08:43:07;;;;;;;15.10;13.60;;;;;;;-2.52;100.00;96926.63;4180203;28;20239;-48
2022/12/14 08:45:10;;;;;;;15.07;13.53;;;;;;;-2.60;100.00;96930.34;4196914;28;20635;-48
2022/12/14 08:47:13;;;;;;;14.03;12.73;;;;;;;-2.37;100.00;96935.25;4197562;28;20291;-48
2022/12/14 08:49:15;;;;;;;15.60;13.67;;;;;;;-2.35;100.00;96936.69;4183530;28;20246;-48
2022/12/14 08:51:17;;;;;;;13.23;12.10;;;;;;;-2.25;100.00;96947.81;4185115;28;20258;-48
2022/12/14 08:53:20;;;;;;;13.87;12.57;;;;;;;-2.17;100.00;96946.75;4205277;28;20256;-48
2022/12/14 08:55:22;;;;;;;15.10;13.63;;;;;;;-2.11;100.00;96951.28;4189798;28;20211;-48
2022/12/14 08:57:29;;;;;;;12.93;11.80;;;;;;;-2.06;100.00;96954.16;4214226;27;20787;-48
2022/12/14 08:59:31;;;;;;;14.70;13.23;;;;;;;-2.01;100.00;96951.69;4188053;28;20246;-48
2022/12/14 09:01:53;;;;;;;12.93;11.83;;;;;;;-1.97;100.00;96955.56;4201499;28;20219;-48
2022/12/14 09:03:55;;;;;;;13.07;11.87;;;;;;;-1.90;100.00;96953.69;4216479;28;20671;-48
2022/12/14 09:06:04;;;;;;;11.97;10.63;;;;;;;-1.84;100.00;96958.22;4199740;28;20718;-49
2022/12/14 09:08:06;;;;;;;12.73;11.47;;;;;;;-1.77;100.00;96959.00;4198696;28;20275;-48
2022/12/14 09:10:09;;;;;;;12.07;10.83;;;;;;;-1.90;100.00;96957.22;4192374;28;20281;-48
2022/12/14 09:12:11;;;;;;;11.63;10.63;;;;;;;-2.09;100.00;96954.56;4199793;28;20204;-48
2022/12/14 09:14:15;;;;;;;12.53;11.37;;;;;;;-2.06;100.00;96954.16;4216359;27;20211;-48
2022/12/14 09:16:18;;;;;;;11.97;10.93;;;;;;;-2.00;100.00;96947.97;4201801;28;20274;-48
2022/12/14 09:18:20;;;;;;;12.67;11.53;;;;;;;-1.98;100.00;96945.88;4189443;28;20231;-48
2022/12/14 09:20:22;;;;;;;10.87;9.97;;;;;;;-2.05;100.00;96953.13;4196994;28;20214;-48
2022/12/14 09:22:24;;;;;;;13.63;11.60;;;;;;;-1.87;100.00;96950.59;4186794;28;20211;-48
2022/12/14 09:24:27;;;;;;;12.73;11.03;;;;;;;-2.15;100.00;96944.72;4203964;28;20210;-49
2022/12/14 09:26:29;;;;;;;13.37;11.53;;;;;;;-2.07;100.00;96952.53;4203234;28;20198;-49
2022/12/14 09:28:34;;;;;;;13.73;10.67;;;;;;;-2.03;100.00;96954.56;4204587;28;20211;-49
2022/12/14 09:30:36;;;;;;;11.53;10.40;;;;;;;-2.16;100.00;96953.75;4198969;28;20199;-49
2022/12/14 09:32:39;;;;;;;12.90;11.37;;;;;;;-2.08;100.00;96956.25;4199619;28;20257;-49
2022/12/14 09:34:41;;;;;;;14.37;12.93;;;;;;;-2.15;100.00;96956.25;4215329;28;20337;-49
2022/12/14 09:36:43;;;;;;;12.47;11.17;;;;;;;-2.13;100.00;96956.84;4204239;28;20291;-49
2022/12/14 09:38:45;;;;;;;20.83;11.60;;;;;;;-2.10;100.00;96958.28;4193781;28;20303;-49
2022/12/14 09:40:57;;;;;;;11.53;10.33;;;;;;;-2.07;100.00;96958.69;4199147;28;20432;-49
2022/12/14 09:43:05;;;;;;;12.83;11.60;;;;;;;-2.14;100.00;96962.44;4186404;28;20211;-49
2022/12/14 09:45:24;;;;;;;13.33;12.23;;;;;;;-1.97;100.00;96959.09;4199655;28;20570;-49
2022/12/14 09:47:52;;;;;;;12.63;11.47;;;;;;;-2.17;100.00;96963.66;4196325;28;20733;-49
2022/12/14 09:49:57;;;;;;;13.13;11.97;;;;;;;-2.04;100.00;96960.97;4189650;28;20211;-51
2022/12/14 09:52:01;;;;;;;20.00;12.43;;;;;;;-2.23;100.00;96958.31;4197719;28;20208;-49
2022/12/14 09:54:09;;;;;;;12.07;10.97;;;;;;;-2.07;100.00;96958.69;4213505;28;20225;-49
2022/12/14 09:56:17;;;;;;;11.93;10.87;;;;;;;-1.92;100.00;96961.13;4195892;28;20241;-49
2022/12/14 09:58:27;;;;;;;14.77;13.67;;;;;;;-1.99;100.00;96960.31;4196950;28;20222;-49
2022/12/14 10:00:34;;;;;;;13.17;11.93;;;;;;;-2.04;100.00;96969.00;4183951;28;20224;-49
2022/12/14 10:02:41;;;;;;;11.10;9.93;;;;;;;-1.99;100.00;96960.31;4197420;28;21139;-48
2022/12/14 10:05:02;;;;;;;12.60;10.23;;;;;;;-2.09;100.00;96963.44;4211624;27;20206;-49
2022/12/14 10:07:15;;;;;;;12.43;11.33;;;;;;;-2.03;100.00;96961.75;4196195;28;20235;-48
2022/12/14 10:09:38;;;;;;;11.03;10.13;;;;;;;-2.03;100.00;96959.09;4200106;28;20194;-49
2022/12/14 10:12:01;;;;;;;10.47;9.50;;;;;;;-1.90;100.00;96948.34;4215058;28;20233;-48
2022/12/14 10:14:24;;;;;;;12.20;10.77;;;;;;;-1.69;100.00;96956.13;4194733;28;20277;-48
2022/12/14 10:16:54;;;;;;;14.37;11.23;;;;;;;-1.70;100.00;96954.44;4213928;28;20289;-48